sensor_id;sensor_type;location;lat;lon;timestamp;temperature;humidity
6439;DHT22;3252;52.540;13.290;2024-03-29T00:00:47;19.30;93.60
6439;DHT22;3252;52.540;13.290;2024-03-29T00:02:48;19.30;93.60
6439;DHT22;3252;52.540;13.290;2024-03-29T00:04:49;19.30;93.60
6439;DHT22;3252;52.540;13.290;2024-03-29T00:06:50;19.30;93.60
6439;DHT22;3252;52.540;13.290;2024-03-29T00:08:51;19.30;93.60
6439;DHT22;3252;52.540;13.290;2024-03-29T00:10:52;19.30;93.70
6439;DHT22;3252;52.540;13.290;2024-03-29T00:12:53;19.30;93.60
6439;DHT22;3252;52.540;13.290;2024-03-29T00:14:54;19.30;93.70
6439;DHT22;3252;52.540;13.290;2024-03-29T00:16:56;19.30;93.60
6439;DHT22;3252;52.540;13.290;2024-03-29T00:18:57;19.30;93.70
6439;DHT22;3252;52.540;13.290;2024-03-29T00:20:58;19.30;93.70
6439;DHT22;3252;52.540;13.290;2024-03-29T00:22:59;19.30;93.70
6439;DHT22;3252;52.540;13.290;2024-03-29T00:25:00;19.30;93.70
6439;DHT22;3252;52.540;13.290;2024-03-29T00:27:02;19.30;93.70
6439;DHT22;3252;52.540;13.290;2024-03-29T00:29:03;19.30;93.70
6439;DHT22;3252;52.540;13.290;2024-03-29T00:31:04;19.30;93.70
6439;DHT22;3252;52.540;13.290;2024-03-29T00:33:06;19.30;93.70
6439;DHT22;3252;52.540;13.290;2024-03-29T00:35:08;19.30;93.70
6439;DHT22;3252;52.540;13.290;2024-03-29T00:37:09;19.30;93.80
6439;DHT22;3252;52.540;13.290;2024-03-29T00:39:09;19.30;93.70
6439;DHT22;3252;52.540;13.290;2024-03-29T00:41:11;19.30;93.80
6439;DHT22;3252;52.540;13.290;2024-03-29T00:43:12;19.30;93.80
6439;DHT22;3252;52.540;13.290;2024-03-29T00:45:13;19.30;93.80
6439;DHT22;3252;52.540;13.290;2024-03-29T00:47:14;19.30;93.80
6439;DHT22;3252;52.540;13.290;2024-03-29T00:49:16;19.30;93.80
6439;DHT22;3252;52.540;13.290;2024-03-29T00:51:17;19.30;93.80
6439;DHT22;3252;52.540;13.290;2024-03-29T00:53:18;19.30;93.80
6439;DHT22;3252;52.540;13.290;2024-03-29T00:55:19;19.30;93.70
6439;DHT22;3252;52.540;13.290;2024-03-29T00:57:21;19.30;93.80
6439;DHT22;3252;52.540;13.290;2024-03-29T00:59:22;19.30;93.80
6439;DHT22;3252;52.540;13.290;2024-03-29T01:01:23;19.30;93.80
6439;DHT22;3252;52.540;13.290;2024-03-29T01:03:24;19.30;93.80
6439;DHT22;3252;52.540;13.290;2024-03-29T01:05:27;19.30;93.80
6439;DHT22;3252;52.540;13.290;2024-03-29T01:07:28;19.30;93.80
6439;DHT22;3252;52.540;13.290;2024-03-29T01:09:29;19.30;93.80
6439;DHT22;3252;52.540;13.290;2024-03-29T01:11:30;19.30;93.80
6439;DHT22;3252;52.540;13.290;2024-03-29T01:13:31;19.30;93.80
6439;DHT22;3252;52.540;13.290;2024-03-29T01:15:32;19.20;93.80
6439;DHT22;3252;52.540;13.290;2024-03-29T01:17:33;19.20;93.70
6439;DHT22;3252;52.540;13.290;2024-03-29T01:19:34;19.20;93.80
6439;DHT22;3252;52.540;13.290;2024-03-29T01:21:36;19.20;93.80
6439;DHT22;3252;52.540;13.290;2024-03-29T01:23:38;19.20;93.80
6439;DHT22;3252;52.540;13.290;2024-03-29T01:25:39;19.20;93.80
6439;DHT22;3252;52.540;13.290;2024-03-29T01:27:40;19.20;93.80
6439;DHT22;3252;52.540;13.290;2024-03-29T01:29:41;19.20;93.80
6439;DHT22;3252;52.540;13.290;2024-03-29T01:31:42;19.20;93.80
6439;DHT22;3252;52.540;13.290;2024-03-29T01:33:43;19.20;93.80
6439;DHT22;3252;52.540;13.290;2024-03-29T01:35:44;19.20;93.80
6439;DHT22;3252;52.540;13.290;2024-03-29T01:37:46;19.20;93.80
6439;DHT22;3252;52.540;13.290;2024-03-29T01:39:47;19.20;93.80
6439;DHT22;3252;52.540;13.290;2024-03-29T01:41:48;19.20;93.80
6439;DHT22;3252;52.540;13.290;2024-03-29T01:43:49;19.20;93.80
6439;DHT22;3252;52.540;13.290;2024-03-29T01:45:54;19.20;93.80
6439;DHT22;3252;52.540;13.290;2024-03-29T01:47:55;19.20;93.80
6439;DHT22;3252;52.540;13.290;2024-03-29T01:49:57;19.20;93.80
6439;DHT22;3252;52.540;13.290;2024-03-29T01:51:58;19.20;93.80
6439;DHT22;3252;52.540;13.290;2024-03-29T01:54:02;19.20;93.80
6439;DHT22;3252;52.540;13.290;2024-03-29T01:56:04;19.20;93.90
6439;DHT22;3252;52.540;13.290;2024-03-29T01:58:07;19.20;94.20
6439;DHT22;3252;52.540;13.290;2024-03-29T02:00:11;19.20;93.80
6439;DHT22;3252;52.540;13.290;2024-03-29T02:02:13;19.20;93.90
6439;DHT22;3252;52.540;13.290;2024-03-29T02:04:15;19.20;93.90
6439;DHT22;3252;52.540;13.290;2024-03-29T02:06:16;19.10;93.90
6439;DHT22;3252;52.540;13.290;2024-03-29T02:08:18;19.20;93.90
6439;DHT22;3252;52.540;13.290;2024-03-29T02:10:21;19.10;93.90
6439;DHT22;3252;52.540;13.290;2024-03-29T02:12:22;19.10;93.90
6439;DHT22;3252;52.540;13.290;2024-03-29T02:14:24;19.10;93.90
6439;DHT22;3252;52.540;13.290;2024-03-29T02:16:25;19.10;94.20
6439;DHT22;3252;52.540;13.290;2024-03-29T02:18:27;19.10;93.90
6439;DHT22;3252;52.540;13.290;2024-03-29T02:20:28;19.10;93.90
6439;DHT22;3252;52.540;13.290;2024-03-29T02:22:36;19.10;93.90
6439;DHT22;3252;52.540;13.290;2024-03-29T02:24:42;19.10;94.00
6439;DHT22;3252;52.540;13.290;2024-03-29T02:26:44;19.10;93.90
6439;DHT22;3252;52.540;13.290;2024-03-29T02:28:47;19.10;94.00
6439;DHT22;3252;52.540;13.290;2024-03-29T02:30:49;19.10;94.00
6439;DHT22;3252;52.540;13.290;2024-03-29T02:32:51;19.10;94.00
6439;DHT22;3252;52.540;13.290;2024-03-29T02:34:53;19.10;94.00
6439;DHT22;3252;52.540;13.290;2024-03-29T02:36:55;19.10;94.00
6439;DHT22;3252;52.540;13.290;2024-03-29T02:38:57;19.10;94.00
6439;DHT22;3252;52.540;13.290;2024-03-29T02:40:59;19.10;94.00
6439;DHT22;3252;52.540;13.290;2024-03-29T02:43:01;19.00;94.00
6439;DHT22;3252;52.540;13.290;2024-03-29T02:45:03;19.10;94.10
6439;DHT22;3252;52.540;13.290;2024-03-29T02:47:05;19.10;94.10
6439;DHT22;3252;52.540;13.290;2024-03-29T02:49:06;19.10;94.10
6439;DHT22;3252;52.540;13.290;2024-03-29T02:51:08;19.00;94.00
6439;DHT22;3252;52.540;13.290;2024-03-29T02:53:09;19.00;94.00
6439;DHT22;3252;52.540;13.290;2024-03-29T02:55:11;19.00;94.00
6439;DHT22;3252;52.540;13.290;2024-03-29T02:57:13;19.00;94.10
6439;DHT22;3252;52.540;13.290;2024-03-29T02:59:14;19.00;94.10
6439;DHT22;3252;52.540;13.290;2024-03-29T03:01:16;19.00;94.10
6439;DHT22;3252;52.540;13.290;2024-03-29T03:03:17;19.00;94.10
6439;DHT22;3252;52.540;13.290;2024-03-29T03:05:19;19.00;94.10
6439;DHT22;3252;52.540;13.290;2024-03-29T03:07:20;19.00;94.10
6439;DHT22;3252;52.540;13.290;2024-03-29T03:09:39;19.00;94.10
6439;DHT22;3252;52.540;13.290;2024-03-29T03:11:59;19.00;94.10
6439;DHT22;3252;52.540;13.290;2024-03-29T03:14:02;19.00;94.10
6439;DHT22;3252;52.540;13.290;2024-03-29T03:16:04;19.00;94.10
6439;DHT22;3252;52.540;13.290;2024-03-29T03:18:06;19.00;94.20
6439;DHT22;3252;52.540;13.290;2024-03-29T03:20:08;18.90;94.10
6439;DHT22;3252;52.540;13.290;2024-03-29T03:22:10;18.90;94.10
6439;DHT22;3252;52.540;13.290;2024-03-29T03:24:11;18.90;94.20
6439;DHT22;3252;52.540;13.290;2024-03-29T03:26:12;18.90;94.10
6439;DHT22;3252;52.540;13.290;2024-03-29T03:28:14;18.90;94.20
6439;DHT22;3252;52.540;13.290;2024-03-29T03:30:17;18.90;94.10
6439;DHT22;3252;52.540;13.290;2024-03-29T03:32:18;18.90;94.10
6439;DHT22;3252;52.540;13.290;2024-03-29T03:34:19;18.90;94.20
6439;DHT22;3252;52.540;13.290;2024-03-29T03:36:21;18.90;94.20
6439;DHT22;3252;52.540;13.290;2024-03-29T03:38:23;18.90;94.20
6439;DHT22;3252;52.540;13.290;2024-03-29T03:40:25;18.90;94.20
6439;DHT22;3252;52.540;13.290;2024-03-29T03:42:26;18.90;94.20
6439;DHT22;3252;52.540;13.290;2024-03-29T03:44:28;18.90;94.20
6439;DHT22;3252;52.540;13.290;2024-03-29T03:46:30;18.90;94.20
6439;DHT22;3252;52.540;13.290;2024-03-29T03:48:32;18.90;94.20
6439;DHT22;3252;52.540;13.290;2024-03-29T03:50:33;18.90;94.30
6439;DHT22;3252;52.540;13.290;2024-03-29T03:52:35;18.90;94.20
6439;DHT22;3252;52.540;13.290;2024-03-29T03:54:36;18.90;94.30
6439;DHT22;3252;52.540;13.290;2024-03-29T03:56:38;18.90;94.30
6439;DHT22;3252;52.540;13.290;2024-03-29T03:58:39;18.80;94.20
6439;DHT22;3252;52.540;13.290;2024-03-29T04:00:41;18.80;94.20
6439;DHT22;3252;52.540;13.290;2024-03-29T04:02:47;18.80;94.20
6439;DHT22;3252;52.540;13.290;2024-03-29T04:04:49;18.80;94.20
6439;DHT22;3252;52.540;13.290;2024-03-29T04:06:50;18.80;94.20
6439;DHT22;3252;52.540;13.290;2024-03-29T04:08:52;18.80;94.30
6439;DHT22;3252;52.540;13.290;2024-03-29T04:10:53;18.80;94.30
6439;DHT22;3252;52.540;13.290;2024-03-29T04:12:55;18.80;94.30
6439;DHT22;3252;52.540;13.290;2024-03-29T04:14:56;18.80;94.30
6439;DHT22;3252;52.540;13.290;2024-03-29T04:16:58;18.80;94.30
6439;DHT22;3252;52.540;13.290;2024-03-29T04:19:00;18.80;94.30
6439;DHT22;3252;52.540;13.290;2024-03-29T04:21:03;18.80;94.30
6439;DHT22;3252;52.540;13.290;2024-03-29T04:23:04;18.80;94.30
6439;DHT22;3252;52.540;13.290;2024-03-29T04:25:07;18.80;94.30
6439;DHT22;3252;52.540;13.290;2024-03-29T04:27:08;18.80;94.30
6439;DHT22;3252;52.540;13.290;2024-03-29T04:29:10;18.80;94.30
6439;DHT22;3252;52.540;13.290;2024-03-29T04:31:11;18.80;94.30
6439;DHT22;3252;52.540;13.290;2024-03-29T04:33:13;18.80;94.30
6439;DHT22;3252;52.540;13.290;2024-03-29T04:35:15;18.80;94.30
6439;DHT22;3252;52.540;13.290;2024-03-29T04:37:17;18.80;94.40
6439;DHT22;3252;52.540;13.290;2024-03-29T04:39:19;18.80;94.40
6439;DHT22;3252;52.540;13.290;2024-03-29T04:41:21;18.80;94.40
6439;DHT22;3252;52.540;13.290;2024-03-29T04:43:24;18.80;94.40
6439;DHT22;3252;52.540;13.290;2024-03-29T04:45:26;18.80;94.40
6439;DHT22;3252;52.540;13.290;2024-03-29T04:47:28;18.80;94.40
6439;DHT22;3252;52.540;13.290;2024-03-29T04:49:30;18.80;94.40
6439;DHT22;3252;52.540;13.290;2024-03-29T04:51:36;18.80;94.40
6439;DHT22;3252;52.540;13.290;2024-03-29T04:53:38;18.80;94.40
6439;DHT22;3252;52.540;13.290;2024-03-29T04:55:40;18.80;94.40
6439;DHT22;3252;52.540;13.290;2024-03-29T04:57:42;18.80;94.30
6439;DHT22;3252;52.540;13.290;2024-03-29T04:59:43;18.80;94.30
6439;DHT22;3252;52.540;13.290;2024-03-29T05:01:45;18.80;94.30
6439;DHT22;3252;52.540;13.290;2024-03-29T05:03:50;18.80;94.30
6439;DHT22;3252;52.540;13.290;2024-03-29T05:05:53;18.80;94.30
6439;DHT22;3252;52.540;13.290;2024-03-29T05:07:57;18.80;94.40
6439;DHT22;3252;52.540;13.290;2024-03-29T05:09:59;18.80;94.60
6439;DHT22;3252;52.540;13.290;2024-03-29T05:12:01;18.80;94.30
6439;DHT22;3252;52.540;13.290;2024-03-29T05:14:03;18.90;94.20
6439;DHT22;3252;52.540;13.290;2024-03-29T05:16:04;18.90;94.20
6439;DHT22;3252;52.540;13.290;2024-03-29T05:18:06;18.90;94.20
6439;DHT22;3252;52.540;13.290;2024-03-29T05:20:08;18.90;94.20
6439;DHT22;3252;52.540;13.290;2024-03-29T05:22:10;18.90;94.20
6439;DHT22;3252;52.540;13.290;2024-03-29T05:24:13;18.90;94.20
6439;DHT22;3252;52.540;13.290;2024-03-29T05:26:14;19.00;94.20
6439;DHT22;3252;52.540;13.290;2024-03-29T05:28:16;18.90;94.10
6439;DHT22;3252;52.540;13.290;2024-03-29T05:30:17;18.90;94.30
6439;DHT22;3252;52.540;13.290;2024-03-29T05:32:19;18.90;94.10
6439;DHT22;3252;52.540;13.290;2024-03-29T05:34:21;19.00;94.20
6439;DHT22;3252;52.540;13.290;2024-03-29T05:36:23;19.00;94.20
6439;DHT22;3252;52.540;13.290;2024-03-29T05:38:24;19.00;94.20
6439;DHT22;3252;52.540;13.290;2024-03-29T05:40:27;19.00;94.20
6439;DHT22;3252;52.540;13.290;2024-03-29T05:42:30;19.00;94.20
6439;DHT22;3252;52.540;13.290;2024-03-29T05:44:32;19.00;94.20
6439;DHT22;3252;52.540;13.290;2024-03-29T05:46:34;19.00;94.20
6439;DHT22;3252;52.540;13.290;2024-03-29T05:48:36;19.00;94.40
6439;DHT22;3252;52.540;13.290;2024-03-29T05:50:39;19.00;94.20
6439;DHT22;3252;52.540;13.290;2024-03-29T05:52:41;19.00;94.20
6439;DHT22;3252;52.540;13.290;2024-03-29T05:54:43;19.00;94.20
6439;DHT22;3252;52.540;13.290;2024-03-29T05:56:47;19.00;94.20
6439;DHT22;3252;52.540;13.290;2024-03-29T05:58:49;19.00;94.20
6439;DHT22;3252;52.540;13.290;2024-03-29T06:00:51;19.00;94.20
6439;DHT22;3252;52.540;13.290;2024-03-29T06:02:52;19.00;94.20
6439;DHT22;3252;52.540;13.290;2024-03-29T06:04:54;19.00;94.20
6439;DHT22;3252;52.540;13.290;2024-03-29T06:06:55;19.00;94.20
6439;DHT22;3252;52.540;13.290;2024-03-29T06:08:58;19.00;94.20
6439;DHT22;3252;52.540;13.290;2024-03-29T06:11:00;19.10;94.30
6439;DHT22;3252;52.540;13.290;2024-03-29T06:13:04;19.10;94.20
6439;DHT22;3252;52.540;13.290;2024-03-29T06:15:11;19.10;94.20
6439;DHT22;3252;52.540;13.290;2024-03-29T06:17:30;19.10;94.20
6439;DHT22;3252;52.540;13.290;2024-03-29T06:19:31;19.10;94.20
6439;DHT22;3252;52.540;13.290;2024-03-29T06:21:33;19.10;94.20
6439;DHT22;3252;52.540;13.290;2024-03-29T06:23:39;19.10;94.20
6439;DHT22;3252;52.540;13.290;2024-03-29T06:25:41;19.10;94.20
6439;DHT22;3252;52.540;13.290;2024-03-29T06:27:43;19.10;94.20
6439;DHT22;3252;52.540;13.290;2024-03-29T06:29:50;19.10;94.20
6439;DHT22;3252;52.540;13.290;2024-03-29T06:31:51;19.20;94.30
6439;DHT22;3252;52.540;13.290;2024-03-29T06:33:53;19.20;94.30
6439;DHT22;3252;52.540;13.290;2024-03-29T06:35:55;19.20;94.40
6439;DHT22;3252;52.540;13.290;2024-03-29T06:37:56;19.20;94.50
6439;DHT22;3252;52.540;13.290;2024-03-29T06:39:58;19.20;94.50
6439;DHT22;3252;52.540;13.290;2024-03-29T06:42:00;19.20;94.40
6439;DHT22;3252;52.540;13.290;2024-03-29T06:44:03;19.30;94.50
6439;DHT22;3252;52.540;13.290;2024-03-29T06:46:06;19.30;94.50
6439;DHT22;3252;52.540;13.290;2024-03-29T06:48:08;19.30;94.50
6439;DHT22;3252;52.540;13.290;2024-03-29T06:50:10;19.30;94.40
6439;DHT22;3252;52.540;13.290;2024-03-29T06:52:11;19.30;94.40
6439;DHT22;3252;52.540;13.290;2024-03-29T06:54:13;19.30;94.40
6439;DHT22;3252;52.540;13.290;2024-03-29T06:56:13;19.30;94.60
6439;DHT22;3252;52.540;13.290;2024-03-29T06:58:16;19.40;95.00
6439;DHT22;3252;52.540;13.290;2024-03-29T07:00:18;19.40;95.00
6439;DHT22;3252;52.540;13.290;2024-03-29T07:02:22;19.40;95.00
6439;DHT22;3252;52.540;13.290;2024-03-29T07:04:24;19.40;95.00
6439;DHT22;3252;52.540;13.290;2024-03-29T07:06:28;19.40;95.10
6439;DHT22;3252;52.540;13.290;2024-03-29T07:08:29;19.50;95.20
6439;DHT22;3252;52.540;13.290;2024-03-29T07:10:31;19.50;95.50
6439;DHT22;3252;52.540;13.290;2024-03-29T07:12:33;19.50;95.30
6439;DHT22;3252;52.540;13.290;2024-03-29T07:14:35;19.60;95.30
6439;DHT22;3252;52.540;13.290;2024-03-29T07:16:36;19.60;95.20
6439;DHT22;3252;52.540;13.290;2024-03-29T07:18:39;19.60;95.20
6439;DHT22;3252;52.540;13.290;2024-03-29T07:20:41;19.60;95.10
6439;DHT22;3252;52.540;13.290;2024-03-29T07:22:43;19.60;95.00
6439;DHT22;3252;52.540;13.290;2024-03-29T07:24:46;19.60;94.90
6439;DHT22;3252;52.540;13.290;2024-03-29T07:26:48;19.60;94.90
6439;DHT22;3252;52.540;13.290;2024-03-29T07:28:49;19.60;94.80
6439;DHT22;3252;52.540;13.290;2024-03-29T07:30:51;19.60;94.80
6439;DHT22;3252;52.540;13.290;2024-03-29T07:32:53;19.60;94.80
6439;DHT22;3252;52.540;13.290;2024-03-29T07:34:57;19.60;94.70
6439;DHT22;3252;52.540;13.290;2024-03-29T07:37:00;19.60;94.70
6439;DHT22;3252;52.540;13.290;2024-03-29T07:39:02;19.60;94.70
6439;DHT22;3252;52.540;13.290;2024-03-29T07:41:04;19.60;94.60
6439;DHT22;3252;52.540;13.290;2024-03-29T07:43:07;19.60;94.60
6439;DHT22;3252;52.540;13.290;2024-03-29T07:45:09;19.70;94.60
6439;DHT22;3252;52.540;13.290;2024-03-29T07:47:11;19.70;94.60
6439;DHT22;3252;52.540;13.290;2024-03-29T07:49:14;19.70;94.60
6439;DHT22;3252;52.540;13.290;2024-03-29T07:51:17;19.70;94.50
6439;DHT22;3252;52.540;13.290;2024-03-29T07:53:19;19.70;94.50
6439;DHT22;3252;52.540;13.290;2024-03-29T07:55:21;19.70;94.50
6439;DHT22;3252;52.540;13.290;2024-03-29T07:57:23;19.70;94.40
6439;DHT22;3252;52.540;13.290;2024-03-29T07:59:25;19.70;94.40
6439;DHT22;3252;52.540;13.290;2024-03-29T08:01:26;19.70;94.40
6439;DHT22;3252;52.540;13.290;2024-03-29T08:03:28;19.70;94.30
6439;DHT22;3252;52.540;13.290;2024-03-29T08:05:29;19.70;94.30
6439;DHT22;3252;52.540;13.290;2024-03-29T08:07:33;19.70;94.20
6439;DHT22;3252;52.540;13.290;2024-03-29T08:09:34;19.70;94.20
6439;DHT22;3252;52.540;13.290;2024-03-29T08:11:36;19.70;94.20
6439;DHT22;3252;52.540;13.290;2024-03-29T08:13:38;19.70;94.10
6439;DHT22;3252;52.540;13.290;2024-03-29T08:15:40;19.70;94.10
6439;DHT22;3252;52.540;13.290;2024-03-29T08:17:42;19.70;94.10
6439;DHT22;3252;52.540;13.290;2024-03-29T08:19:44;19.70;94.10
6439;DHT22;3252;52.540;13.290;2024-03-29T08:21:46;19.80;94.10
6439;DHT22;3252;52.540;13.290;2024-03-29T08:23:50;19.80;94.10
6439;DHT22;3252;52.540;13.290;2024-03-29T08:25:52;19.80;94.00
6439;DHT22;3252;52.540;13.290;2024-03-29T08:27:55;19.80;94.00
6439;DHT22;3252;52.540;13.290;2024-03-29T08:29:59;19.80;94.00
6439;DHT22;3252;52.540;13.290;2024-03-29T08:32:00;19.80;93.90
6439;DHT22;3252;52.540;13.290;2024-03-29T08:34:04;19.80;89.90
6439;DHT22;3252;52.540;13.290;2024-03-29T08:36:08;19.70;85.20
6439;DHT22;3252;52.540;13.290;2024-03-29T08:38:11;19.70;84.50
6439;DHT22;3252;52.540;13.290;2024-03-29T08:40:15;19.70;90.00
6439;DHT22;3252;52.540;13.290;2024-03-29T08:42:16;19.60;90.10
6439;DHT22;3252;52.540;13.290;2024-03-29T08:44:18;19.60;90.50
6439;DHT22;3252;52.540;13.290;2024-03-29T08:46:20;19.60;91.20
6439;DHT22;3252;52.540;13.290;2024-03-29T08:48:23;19.60;91.50
6439;DHT22;3252;52.540;13.290;2024-03-29T08:50:25;19.60;91.70
6439;DHT22;3252;52.540;13.290;2024-03-29T08:52:26;19.70;92.00
6439;DHT22;3252;52.540;13.290;2024-03-29T08:54:28;19.70;92.10
6439;DHT22;3252;52.540;13.290;2024-03-29T08:56:31;19.70;92.20
6439;DHT22;3252;52.540;13.290;2024-03-29T08:58:35;19.70;92.30
6439;DHT22;3252;52.540;13.290;2024-03-29T09:00:37;19.80;92.40
6439;DHT22;3252;52.540;13.290;2024-03-29T09:02:38;19.80;92.50
6439;DHT22;3252;52.540;13.290;2024-03-29T09:04:40;19.80;92.50
6439;DHT22;3252;52.540;13.290;2024-03-29T09:06:41;19.80;92.60
6439;DHT22;3252;52.540;13.290;2024-03-29T09:08:43;19.80;92.70
6439;DHT22;3252;52.540;13.290;2024-03-29T09:10:45;19.90;92.80
6439;DHT22;3252;52.540;13.290;2024-03-29T09:12:48;19.90;92.80
6439;DHT22;3252;52.540;13.290;2024-03-29T09:14:49;19.90;92.80
6439;DHT22;3252;52.540;13.290;2024-03-29T09:16:51;19.90;92.80
6439;DHT22;3252;52.540;13.290;2024-03-29T09:18:54;19.90;92.90
6439;DHT22;3252;52.540;13.290;2024-03-29T09:20:57;19.90;92.90
6439;DHT22;3252;52.540;13.290;2024-03-29T09:22:59;19.90;92.90
6439;DHT22;3252;52.540;13.290;2024-03-29T09:25:01;19.90;92.90
6439;DHT22;3252;52.540;13.290;2024-03-29T09:27:04;19.90;93.00
6439;DHT22;3252;52.540;13.290;2024-03-29T09:29:07;20.00;93.00
6439;DHT22;3252;52.540;13.290;2024-03-29T09:31:09;20.00;93.00
6439;DHT22;3252;52.540;13.290;2024-03-29T09:33:11;20.00;93.00
6439;DHT22;3252;52.540;13.290;2024-03-29T09:35:12;20.00;93.00
6439;DHT22;3252;52.540;13.290;2024-03-29T09:37:14;20.00;93.00
6439;DHT22;3252;52.540;13.290;2024-03-29T09:39:16;20.00;93.00
6439;DHT22;3252;52.540;13.290;2024-03-29T09:41:19;20.00;93.00
6439;DHT22;3252;52.540;13.290;2024-03-29T09:43:21;20.00;93.00
6439;DHT22;3252;52.540;13.290;2024-03-29T09:45:25;20.00;93.00
6439;DHT22;3252;52.540;13.290;2024-03-29T09:47:27;20.10;93.10
6439;DHT22;3252;52.540;13.290;2024-03-29T09:49:31;20.10;93.00
6439;DHT22;3252;52.540;13.290;2024-03-29T09:51:32;20.10;93.00
6439;DHT22;3252;52.540;13.290;2024-03-29T09:53:36;20.10;93.00
6439;DHT22;3252;52.540;13.290;2024-03-29T09:55:38;20.10;93.00
6439;DHT22;3252;52.540;13.290;2024-03-29T09:57:40;20.20;93.00
6439;DHT22;3252;52.540;13.290;2024-03-29T09:59:42;20.20;93.00
6439;DHT22;3252;52.540;13.290;2024-03-29T10:01:44;20.20;93.00
6439;DHT22;3252;52.540;13.290;2024-03-29T10:03:49;20.20;93.00
6439;DHT22;3252;52.540;13.290;2024-03-29T10:05:51;20.20;93.00
6439;DHT22;3252;52.540;13.290;2024-03-29T10:07:54;20.20;93.00
6439;DHT22;3252;52.540;13.290;2024-03-29T10:09:57;20.20;93.00
6439;DHT22;3252;52.540;13.290;2024-03-29T10:11:59;20.20;93.00
6439;DHT22;3252;52.540;13.290;2024-03-29T10:14:01;20.20;93.00
6439;DHT22;3252;52.540;13.290;2024-03-29T10:16:04;20.20;93.00
6439;DHT22;3252;52.540;13.290;2024-03-29T10:18:09;20.20;93.00
6439;DHT22;3252;52.540;13.290;2024-03-29T10:20:11;20.20;93.00
6439;DHT22;3252;52.540;13.290;2024-03-29T10:22:14;20.20;93.00
6439;DHT22;3252;52.540;13.290;2024-03-29T10:24:17;20.20;93.00
6439;DHT22;3252;52.540;13.290;2024-03-29T10:26:18;20.20;93.00
6439;DHT22;3252;52.540;13.290;2024-03-29T10:28:20;20.20;93.00
6439;DHT22;3252;52.540;13.290;2024-03-29T10:30:21;20.20;93.00
6439;DHT22;3252;52.540;13.290;2024-03-29T10:32:23;20.20;93.00
6439;DHT22;3252;52.540;13.290;2024-03-29T10:34:27;20.20;93.00
6439;DHT22;3252;52.540;13.290;2024-03-29T10:36:34;20.20;93.10
6439;DHT22;3252;52.540;13.290;2024-03-29T10:38:37;20.20;93.10
6439;DHT22;3252;52.540;13.290;2024-03-29T10:40:39;20.20;93.00
6439;DHT22;3252;52.540;13.290;2024-03-29T10:42:43;20.20;93.00
6439;DHT22;3252;52.540;13.290;2024-03-29T10:44:45;20.30;93.10
6439;DHT22;3252;52.540;13.290;2024-03-29T10:46:48;20.30;93.10
6439;DHT22;3252;52.540;13.290;2024-03-29T10:48:51;20.30;93.10
6439;DHT22;3252;52.540;13.290;2024-03-29T10:50:55;20.30;93.10
6439;DHT22;3252;52.540;13.290;2024-03-29T10:53:00;20.30;93.10
6439;DHT22;3252;52.540;13.290;2024-03-29T10:55:03;20.30;93.00
6439;DHT22;3252;52.540;13.290;2024-03-29T10:57:12;20.30;93.10
6439;DHT22;3252;52.540;13.290;2024-03-29T10:59:22;20.30;93.10
6439;DHT22;3252;52.540;13.290;2024-03-29T11:01:28;20.30;93.00
6439;DHT22;3252;52.540;13.290;2024-03-29T11:03:38;20.30;93.00
6439;DHT22;3252;52.540;13.290;2024-03-29T11:05:44;20.40;93.10
6439;DHT22;3252;52.540;13.290;2024-03-29T11:07:50;20.40;93.00
6439;DHT22;3252;52.540;13.290;2024-03-29T11:09:57;20.40;93.00
6439;DHT22;3252;52.540;13.290;2024-03-29T11:12:01;20.40;93.00
6439;DHT22;3252;52.540;13.290;2024-03-29T11:14:09;20.40;93.00
6439;DHT22;3252;52.540;13.290;2024-03-29T11:16:14;20.50;93.00
6439;DHT22;3252;52.540;13.290;2024-03-29T11:18:17;20.50;93.00
6439;DHT22;3252;52.540;13.290;2024-03-29T11:20:20;20.50;93.00
6439;DHT22;3252;52.540;13.290;2024-03-29T11:22:28;20.50;93.00
6439;DHT22;3252;52.540;13.290;2024-03-29T11:24:32;20.50;93.00
6439;DHT22;3252;52.540;13.290;2024-03-29T11:26:34;20.50;93.00
6439;DHT22;3252;52.540;13.290;2024-03-29T11:28:36;20.50;93.00
6439;DHT22;3252;52.540;13.290;2024-03-29T11:30:42;20.50;93.00
6439;DHT22;3252;52.540;13.290;2024-03-29T11:32:43;20.50;93.00
6439;DHT22;3252;52.540;13.290;2024-03-29T11:34:45;20.50;92.90
6439;DHT22;3252;52.540;13.290;2024-03-29T11:36:46;20.60;93.00
6439;DHT22;3252;52.540;13.290;2024-03-29T11:38:49;20.60;93.00
6439;DHT22;3252;52.540;13.290;2024-03-29T11:41:00;20.60;92.80
6439;DHT22;3252;52.540;13.290;2024-03-29T11:43:03;20.60;92.90
6439;DHT22;3252;52.540;13.290;2024-03-29T11:45:05;20.60;92.90
6439;DHT22;3252;52.540;13.290;2024-03-29T11:47:12;20.60;92.90
6439;DHT22;3252;52.540;13.290;2024-03-29T11:49:13;20.60;92.90
6439;DHT22;3252;52.540;13.290;2024-03-29T11:51:17;20.60;92.90
6439;DHT22;3252;52.540;13.290;2024-03-29T11:53:22;20.60;92.80
6439;DHT22;3252;52.540;13.290;2024-03-29T11:55:23;20.60;92.90
6439;DHT22;3252;52.540;13.290;2024-03-29T11:57:29;20.60;92.90
6439;DHT22;3252;52.540;13.290;2024-03-29T11:59:31;20.60;92.90
6439;DHT22;3252;52.540;13.290;2024-03-29T12:01:33;20.60;92.90
6439;DHT22;3252;52.540;13.290;2024-03-29T12:03:38;20.60;92.90
6439;DHT22;3252;52.540;13.290;2024-03-29T12:05:40;20.60;92.90
6439;DHT22;3252;52.540;13.290;2024-03-29T12:07:42;20.60;93.00
6439;DHT22;3252;52.540;13.290;2024-03-29T12:09:44;20.60;93.00
6439;DHT22;3252;52.540;13.290;2024-03-29T12:11:47;20.60;93.00
6439;DHT22;3252;52.540;13.290;2024-03-29T12:13:51;20.60;93.00
6439;DHT22;3252;52.540;13.290;2024-03-29T12:15:53;20.60;93.00
6439;DHT22;3252;52.540;13.290;2024-03-29T12:17:55;20.60;93.00
6439;DHT22;3252;52.540;13.290;2024-03-29T12:19:58;20.60;93.00
6439;DHT22;3252;52.540;13.290;2024-03-29T12:22:03;20.60;93.00
6439;DHT22;3252;52.540;13.290;2024-03-29T12:24:06;20.60;93.00
6439;DHT22;3252;52.540;13.290;2024-03-29T12:26:09;20.60;93.10
6439;DHT22;3252;52.540;13.290;2024-03-29T12:28:13;20.60;93.00
6439;DHT22;3252;52.540;13.290;2024-03-29T12:30:18;20.60;93.10
6439;DHT22;3252;52.540;13.290;2024-03-29T12:32:19;20.60;93.10
6439;DHT22;3252;52.540;13.290;2024-03-29T12:34:21;20.60;93.10
6439;DHT22;3252;52.540;13.290;2024-03-29T12:36:23;20.60;93.10
6439;DHT22;3252;52.540;13.290;2024-03-29T12:38:27;20.60;93.10
6439;DHT22;3252;52.540;13.290;2024-03-29T12:40:30;20.60;93.10
6439;DHT22;3252;52.540;13.290;2024-03-29T12:42:35;20.60;93.10
6439;DHT22;3252;52.540;13.290;2024-03-29T12:44:36;20.60;93.10
6439;DHT22;3252;52.540;13.290;2024-03-29T12:46:40;20.60;93.10
6439;DHT22;3252;52.540;13.290;2024-03-29T12:48:42;20.60;93.10
6439;DHT22;3252;52.540;13.290;2024-03-29T12:50:45;20.70;93.10
6439;DHT22;3252;52.540;13.290;2024-03-29T12:52:47;20.70;93.10
6439;DHT22;3252;52.540;13.290;2024-03-29T12:54:48;20.70;93.10
6439;DHT22;3252;52.540;13.290;2024-03-29T12:56:50;20.70;93.10
6439;DHT22;3252;52.540;13.290;2024-03-29T12:58:52;20.70;93.10
6439;DHT22;3252;52.540;13.290;2024-03-29T13:00:55;20.70;93.10
6439;DHT22;3252;52.540;13.290;2024-03-29T13:02:58;20.70;93.10
6439;DHT22;3252;52.540;13.290;2024-03-29T13:04:59;20.70;93.10